createdAt,value
2022-12-22T00:01:49.559Z,12.20
2022-12-22T00:04:35.854Z,12.20
2022-12-22T00:07:21.951Z,12.20
2022-12-22T00:10:07.353Z,12.20
2022-12-22T00:12:54.929Z,12.20
2022-12-22T00:15:40.858Z,12.20
2022-12-22T00:18:31.944Z,12.20
2022-12-22T00:21:17.597Z,12.20
2022-12-22T00:24:03.351Z,12.20
2022-12-22T00:26:51.128Z,12.20
2022-12-22T00:29:39.336Z,12.20
2022-12-22T00:32:27.416Z,12.20
2022-12-22T00:35:12.923Z,12.10
2022-12-22T00:37:58.615Z,12.10
2022-12-22T00:40:46.502Z,12.10
2022-12-22T00:43:32.814Z,12.10
2022-12-22T00:46:21.953Z,12.00
2022-12-22T00:49:08.806Z,12.00
2022-12-22T00:51:54.772Z,12.00
2022-12-22T00:54:41.866Z,12.00
2022-12-22T00:57:35.110Z,12.00
2022-12-22T01:00:22.512Z,11.90
2022-12-22T01:03:09.939Z,11.90
2022-12-22T01:05:56.014Z,11.90
2022-12-22T01:08:42.037Z,11.90
2022-12-22T01:11:27.983Z,11.90
2022-12-22T01:14:13.461Z,11.90
2022-12-22T01:16:59.173Z,11.90
2022-12-22T01:19:46.485Z,11.90
2022-12-22T01:22:36.858Z,11.80
2022-12-22T01:25:30.852Z,11.80
2022-12-22T01:28:16.256Z,11.90
2022-12-22T01:31:02.360Z,11.90
2022-12-22T01:33:48.645Z,11.80
2022-12-22T01:36:36.116Z,11.80
2022-12-22T01:39:22.691Z,11.80
2022-12-22T01:42:08.720Z,11.80
2022-12-22T01:44:54.181Z,11.70
2022-12-22T01:47:53.432Z,11.70
2022-12-22T01:50:44.332Z,11.70
2022-12-22T01:53:35.449Z,11.70
2022-12-22T01:56:21.400Z,11.70
2022-12-22T01:59:10.616Z,11.70
2022-12-22T02:01:57.772Z,11.70
2022-12-22T02:04:48.395Z,11.70
2022-12-22T02:07:49.182Z,11.70
2022-12-22T02:10:49.686Z,11.70
2022-12-22T02:13:48.537Z,11.70
2022-12-22T02:16:39.731Z,11.70
2022-12-22T02:19:33.880Z,11.70
2022-12-22T02:22:28.372Z,11.70
2022-12-22T02:25:21.725Z,11.70
2022-12-22T02:28:12.147Z,11.70
2022-12-22T02:30:59.802Z,11.70
2022-12-22T02:33:45.846Z,11.70
2022-12-22T02:36:40.345Z,11.70
2022-12-22T02:39:33.203Z,11.70
2022-12-22T02:42:28.681Z,11.70
2022-12-22T02:45:23.289Z,11.70
2022-12-22T02:48:17.781Z,11.70
2022-12-22T02:51:08.643Z,11.60
2022-12-22T02:53:56.107Z,11.60
2022-12-22T02:56:42.145Z,11.60
2022-12-22T02:59:27.654Z,11.60
2022-12-22T03:02:15.475Z,11.60
2022-12-22T03:05:01.368Z,11.60
2022-12-22T03:07:47.216Z,11.50
2022-12-22T03:10:33.157Z,11.50
2022-12-22T03:13:19.060Z,11.50
2022-12-22T03:16:04.611Z,11.50
2022-12-22T03:18:51.712Z,11.60
2022-12-22T03:21:37.241Z,11.60
2022-12-22T03:24:23.104Z,11.60
2022-12-22T03:26:51.387Z,11.60
2022-12-22T03:29:19.760Z,11.60
2022-12-22T03:31:48.155Z,11.60
2022-12-22T03:34:17.896Z,11.60
2022-12-22T03:36:46.212Z,11.60
2022-12-22T03:39:14.793Z,11.60
2022-12-22T03:42:00.283Z,11.60
2022-12-22T03:44:45.884Z,11.60
2022-12-22T03:47:14.671Z,11.60
2022-12-22T03:49:44.381Z,11.60
2022-12-22T03:52:12.719Z,11.60
2022-12-22T03:54:41.352Z,11.70
2022-12-22T03:57:10.080Z,11.60
2022-12-22T03:59:38.442Z,11.70
2022-12-22T04:02:08.346Z,11.70
2022-12-22T04:04:36.950Z,11.70
2022-12-22T04:07:06.722Z,11.70
2022-12-22T04:09:35.087Z,11.70
2022-12-22T04:12:20.856Z,11.70
2022-12-22T04:14:49.282Z,11.70
2022-12-22T04:17:17.642Z,11.70
2022-12-22T04:19:46.053Z,11.70
2022-12-22T04:22:15.712Z,11.70
2022-12-22T04:24:44.063Z,11.70
2022-12-22T04:27:12.377Z,11.70
2022-12-22T04:29:40.763Z,11.70
2022-12-22T04:32:09.083Z,11.70
2022-12-22T04:34:38.258Z,11.70
2022-12-22T04:37:14.938Z,11.70
2022-12-22T04:39:47.135Z,11.70
2022-12-22T04:42:15.475Z,11.70
2022-12-22T04:44:44.071Z,11.70
2022-12-22T04:47:12.474Z,11.70
2022-12-22T04:49:40.958Z,11.70
2022-12-22T04:52:09.359Z,11.70
2022-12-22T04:54:37.709Z,11.70
2022-12-22T04:57:07.363Z,11.70
2022-12-22T04:59:35.655Z,11.70
2022-12-22T05:02:04.061Z,11.70
2022-12-22T05:04:32.656Z,11.70
2022-12-22T05:07:00.986Z,11.70
2022-12-22T05:09:29.355Z,11.70
2022-12-22T05:11:57.671Z,11.70
2022-12-22T05:14:27.401Z,11.70
2022-12-22T05:16:55.729Z,11.70
2022-12-22T05:19:30.452Z,11.70
2022-12-22T05:21:59.163Z,11.70
2022-12-22T05:24:27.499Z,11.80
2022-12-22T05:26:55.830Z,11.80
2022-12-22T05:29:24.317Z,11.80
2022-12-22T05:31:54.391Z,11.80
2022-12-22T05:34:22.673Z,11.80
2022-12-22T05:36:50.961Z,11.80
2022-12-22T05:39:19.341Z,11.80
2022-12-22T05:41:47.899Z,11.80
2022-12-22T05:44:16.445Z,11.80
2022-12-22T05:46:44.880Z,11.80
2022-12-22T05:49:14.816Z,11.80
2022-12-22T05:51:43.149Z,11.80
2022-12-22T05:54:11.764Z,11.80
2022-12-22T05:56:40.051Z,11.80
2022-12-22T05:59:08.362Z,11.80
2022-12-22T06:01:36.771Z,11.80
2022-12-22T06:04:05.657Z,11.70
2022-12-22T06:06:36.009Z,11.70
2022-12-22T06:09:04.586Z,11.70
2022-12-22T06:11:32.913Z,11.70
2022-12-22T06:14:01.247Z,11.70
2022-12-22T06:16:29.624Z,11.70
2022-12-22T06:18:58.020Z,11.70
2022-12-22T06:21:26.378Z,11.70
2022-12-22T06:23:56.254Z,11.70
2022-12-22T06:26:24.533Z,11.60
2022-12-22T06:28:53.044Z,11.60
2022-12-22T06:31:21.618Z,11.60
2022-12-22T06:33:50.025Z,11.60
2022-12-22T06:36:18.445Z,11.60
2022-12-22T06:38:46.828Z,11.60
2022-12-22T06:41:36.567Z,11.60
2022-12-22T06:44:03.980Z,11.60
2022-12-22T06:46:32.284Z,11.60
2022-12-22T06:49:00.702Z,11.60
2022-12-22T06:51:29.027Z,11.60
2022-12-22T06:53:57.488Z,11.60
2022-12-22T06:56:27.224Z,11.60
2022-12-22T06:58:55.564Z,11.60
2022-12-22T07:01:24.746Z,11.60
2022-12-22T07:04:08.063Z,11.60
2022-12-22T07:06:36.623Z,11.60
2022-12-22T07:09:05.528Z,11.60
2022-12-22T07:11:35.258Z,11.60
2022-12-22T07:14:03.643Z,11.60
2022-12-22T07:16:32.189Z,11.60
2022-12-22T07:19:00.654Z,11.60
2022-12-22T07:21:29.020Z,11.60
2022-12-22T07:23:57.336Z,11.60
2022-12-22T07:26:25.800Z,11.60
2022-12-22T07:28:55.566Z,11.60
2022-12-22T07:31:24.472Z,11.60
2022-12-22T07:33:53.414Z,11.60
2022-12-22T07:36:22.069Z,11.60
2022-12-22T07:41:51.753Z,11.60
2022-12-22T07:44:21.584Z,11.60
2022-12-22T07:46:50.067Z,11.60
2022-12-22T07:49:55.919Z,11.60
2022-12-22T07:52:24.274Z,11.60
2022-12-22T07:54:52.621Z,11.60
2022-12-22T07:57:20.961Z,11.60
2022-12-22T07:59:50.629Z,11.60
2022-12-22T08:02:19.137Z,11.60
2022-12-22T08:04:47.629Z,11.60
2022-12-22T08:07:16.262Z,11.60
2022-12-22T08:09:44.580Z,11.60
2022-12-22T08:12:13.024Z,11.60
2022-12-22T08:14:43.205Z,11.70
2022-12-22T08:17:13.010Z,11.70
2022-12-22T08:19:41.644Z,11.70
2022-12-22T08:22:09.879Z,11.70
2022-12-22T08:24:38.251Z,11.70
2022-12-22T08:27:12.073Z,11.70
2022-12-22T08:29:44.380Z,11.70
2022-12-22T08:32:14.473Z,11.70
2022-12-22T08:34:43.406Z,11.70
2022-12-22T08:37:15.256Z,11.70
2022-12-22T08:39:45.489Z,11.80
2022-12-22T08:42:17.204Z,11.80
2022-12-22T08:44:46.042Z,11.80
2022-12-22T08:47:17.392Z,11.80
2022-12-22T08:49:45.875Z,11.80
2022-12-22T08:52:18.684Z,11.90
2022-12-22T08:54:47.523Z,11.90
2022-12-22T08:57:15.807Z,11.90
2022-12-22T08:59:44.120Z,11.90
2022-12-22T09:02:12.467Z,11.90
2022-12-22T09:04:42.149Z,11.90
2022-12-22T09:07:11.538Z,12.00
2022-12-22T09:09:40.276Z,12.00
2022-12-22T09:12:09.339Z,12.00
2022-12-22T09:14:37.723Z,12.00
2022-12-22T09:17:06.231Z,12.10
2022-12-22T09:19:34.604Z,12.10
2022-12-22T09:22:04.700Z,12.10
2022-12-22T09:24:33.045Z,12.10
2022-12-22T09:27:03.422Z,12.10
2022-12-22T09:29:31.817Z,12.10
2022-12-22T09:32:00.212Z,12.10
2022-12-22T09:34:28.665Z,12.20
2022-12-22T09:36:57.000Z,12.20
2022-12-22T09:39:29.032Z,12.20
2022-12-22T09:41:59.356Z,12.20
2022-12-22T09:48:59.803Z,12.20
2022-12-22T09:51:28.813Z,12.20
2022-12-22T09:54:00.012Z,12.20
2022-12-22T09:56:30.772Z,12.30
2022-12-22T09:58:59.234Z,12.30
2022-12-22T10:01:40.359Z,12.30
2022-12-22T10:04:18.142Z,12.30
2022-12-22T10:06:53.281Z,12.30
2022-12-22T10:12:18.431Z,12.40
2022-12-22T10:14:48.991Z,12.40
2022-12-22T10:17:22.679Z,12.40
2022-12-22T10:19:54.351Z,12.40
2022-12-22T10:22:31.685Z,12.40
2022-12-22T10:25:02.599Z,12.40
2022-12-22T10:27:41.983Z,12.50
2022-12-22T10:30:21.394Z,12.50
2022-12-22T10:33:07.520Z,12.40
2022-12-22T10:35:50.932Z,12.50
2022-12-22T10:38:23.241Z,12.50
2022-12-22T10:40:59.965Z,12.50
2022-12-22T10:43:35.787Z,12.50
2022-12-22T10:46:05.410Z,12.50
2022-12-22T10:48:35.921Z,12.50
2022-12-22T10:51:07.742Z,12.50
2022-12-22T10:53:42.758Z,12.50
2022-12-22T10:56:21.566Z,12.60
2022-12-22T10:58:54.514Z,12.60
2022-12-22T11:01:28.573Z,12.60
2022-12-22T11:03:57.595Z,12.60
2022-12-22T11:06:26.196Z,12.60
2022-12-22T11:09:01.527Z,12.60
2022-12-22T11:11:49.226Z,12.60
2022-12-22T11:14:29.853Z,12.60
2022-12-22T11:17:04.028Z,12.60
2022-12-22T11:19:50.262Z,12.60
2022-12-22T11:22:29.627Z,12.60
2022-12-22T11:25:23.047Z,12.60
2022-12-22T11:28:00.388Z,12.60
2022-12-22T11:30:39.971Z,12.60
2022-12-22T11:33:21.555Z,12.60
2022-12-22T11:35:58.437Z,12.70
2022-12-22T11:38:39.710Z,12.70
2022-12-22T11:41:23.829Z,12.70
2022-12-22T11:44:05.800Z,12.70
2022-12-22T11:46:44.630Z,12.70
2022-12-22T11:49:28.969Z,12.70
2022-12-22T11:52:14.817Z,12.70
2022-12-22T11:55:05.414Z,12.80
2022-12-22T11:57:40.853Z,12.80
2022-12-22T12:00:12.080Z,12.80
2022-12-22T12:03:32.420Z,12.80
2022-12-22T12:06:15.901Z,12.80
2022-12-22T12:09:01.222Z,12.80
2022-12-22T12:11:40.498Z,12.90
2022-12-22T12:14:20.849Z,12.90
2022-12-22T12:16:55.591Z,12.90
2022-12-22T12:19:59.749Z,12.90
2022-12-22T12:22:41.473Z,12.90
2022-12-22T12:25:26.184Z,12.90
2022-12-22T12:28:07.328Z,12.90
2022-12-22T12:30:40.105Z,12.90
2022-12-22T12:33:15.424Z,12.90
2022-12-22T12:40:33.030Z,12.80
2022-12-22T12:43:02.320Z,12.90
2022-12-22T12:45:34.897Z,12.90
2022-12-22T12:48:36.390Z,12.90
2022-12-22T12:55:33.373Z,12.90
2022-12-22T12:58:04.272Z,12.90
2022-12-22T13:00:49.704Z,13.00
2022-12-22T13:06:52.155Z,13.10
2022-12-22T13:12:39.817Z,13.10
2022-12-22T13:15:29.118Z,13.10
2022-12-22T13:17:58.337Z,13.20
2022-12-22T13:20:30.864Z,13.20
2022-12-22T13:23:01.459Z,13.30
2022-12-22T13:25:42.536Z,13.30
2022-12-22T13:28:17.234Z,13.30
2022-12-22T13:30:49.420Z,13.40
2022-12-22T13:33:22.945Z,13.40
2022-12-22T13:35:58.487Z,13.40
2022-12-22T13:38:32.065Z,13.50
2022-12-22T13:41:03.246Z,13.50
2022-12-22T13:43:34.204Z,13.50
2022-12-22T13:46:04.313Z,13.60
2022-12-22T13:48:43.931Z,13.60
2022-12-22T13:51:19.765Z,13.70
2022-12-22T13:54:09.701Z,13.70
2022-12-22T13:56:42.808Z,13.80
2022-12-22T13:59:27.701Z,13.80
2022-12-22T14:02:00.094Z,13.80
2022-12-22T14:04:31.011Z,13.80
2022-12-22T14:07:10.611Z,13.90
2022-12-22T14:14:10.006Z,13.90
2022-12-22T14:16:46.674Z,13.90
2022-12-22T14:23:48.853Z,13.90
2022-12-22T14:26:23.363Z,14.00
2022-12-22T14:28:54.680Z,14.00
2022-12-22T14:31:23.054Z,14.00
2022-12-22T14:33:56.981Z,14.10
2022-12-22T14:36:26.580Z,14.10
2022-12-22T14:38:56.515Z,14.20
2022-12-22T14:41:44.299Z,14.20
2022-12-22T14:44:16.873Z,14.20
2022-12-22T14:46:48.489Z,14.20
2022-12-22T14:49:20.209Z,14.20
2022-12-22T14:52:00.803Z,14.20
2022-12-22T14:54:30.071Z,14.20
2022-12-22T14:57:03.491Z,14.20
2022-12-22T14:59:32.382Z,14.20
2022-12-22T15:02:02.716Z,14.20
2022-12-22T15:04:32.963Z,14.30
2022-12-22T15:07:45.847Z,14.20
2022-12-22T15:10:15.183Z,14.20
2022-12-22T15:12:44.629Z,14.30
2022-12-22T15:15:21.255Z,14.30
2022-12-22T15:17:51.933Z,14.30
2022-12-22T15:20:23.801Z,14.30
2022-12-22T15:22:52.317Z,14.30
2022-12-22T15:25:22.698Z,14.30
2022-12-22T15:27:51.992Z,14.30
2022-12-22T15:30:28.643Z,14.40
2022-12-22T15:32:57.565Z,14.30
2022-12-22T15:35:30.705Z,14.40
2022-12-22T15:37:59.474Z,14.40
2022-12-22T15:40:29.349Z,14.40
2022-12-22T15:42:57.714Z,14.40
2022-12-22T15:45:26.018Z,14.40
2022-12-22T15:47:55.648Z,14.40
2022-12-22T15:50:36.669Z,14.40
2022-12-22T15:53:09.228Z,14.40
2022-12-22T15:55:41.916Z,14.40
2022-12-22T15:58:14.491Z,14.40
2022-12-22T16:00:43.014Z,14.40
2022-12-22T16:03:13.250Z,14.40
2022-12-22T16:05:43.388Z,14.40
2022-12-22T16:08:18.196Z,14.40
2022-12-22T16:10:47.968Z,14.30
2022-12-22T16:13:18.033Z,14.30
2022-12-22T16:15:46.408Z,14.30
2022-12-22T16:18:14.802Z,14.30
2022-12-22T16:20:45.410Z,14.30
2022-12-22T16:23:18.620Z,14.30
2022-12-22T16:25:47.675Z,14.30
2022-12-22T16:28:19.052Z,14.30
2022-12-22T16:30:48.355Z,14.30
2022-12-22T16:33:17.468Z,14.30
2022-12-22T16:35:47.245Z,14.20
2022-12-22T16:38:18.929Z,14.20
2022-12-22T16:40:51.443Z,14.20
2022-12-22T16:46:15.175Z,14.20
2022-12-22T16:48:46.188Z,14.20
2022-12-22T16:51:20.451Z,14.20
2022-12-22T16:53:49.208Z,14.20
2022-12-22T16:56:20.138Z,14.20
2022-12-22T16:58:49.312Z,14.20
2022-12-22T17:01:32.970Z,14.20
2022-12-22T17:04:05.336Z,14.20
2022-12-22T17:06:35.939Z,14.20
2022-12-22T17:09:05.761Z,14.20
2022-12-22T17:11:34.541Z,14.20
2022-12-22T17:14:08.713Z,14.10
2022-12-22T17:16:37.084Z,14.20
2022-12-22T17:19:06.743Z,14.10
2022-12-22T17:21:36.557Z,14.20
2022-12-22T17:24:05.051Z,14.20
2022-12-22T17:26:35.387Z,14.20
2022-12-22T17:29:03.788Z,14.20
2022-12-22T17:31:32.188Z,14.20
2022-12-22T17:34:00.564Z,14.20
2022-12-22T17:36:34.909Z,14.20
2022-12-22T17:39:05.272Z,14.20
2022-12-22T17:41:34.299Z,14.20
2022-12-22T17:44:02.665Z,14.20
2022-12-22T17:46:31.124Z,14.20
2022-12-22T17:48:59.497Z,14.20
2022-12-22T17:51:29.394Z,14.20
2022-12-22T17:53:59.325Z,14.20
2022-12-22T17:56:31.074Z,14.20
2022-12-22T17:58:59.435Z,14.20
2022-12-22T18:01:29.910Z,14.10
2022-12-22T18:03:58.844Z,14.20
2022-12-22T18:06:29.918Z,14.10
2022-12-22T18:08:58.892Z,14.10
2022-12-22T18:11:28.820Z,14.10
2022-12-22T18:13:59.405Z,14.10
2022-12-22T18:16:27.906Z,14.10
2022-12-22T18:18:56.235Z,14.10
2022-12-22T18:21:26.317Z,14.10
2022-12-22T18:23:54.873Z,14.10
2022-12-22T18:26:26.212Z,14.10
2022-12-22T18:28:56.689Z,14.10
2022-12-22T18:31:25.913Z,14.10
2022-12-22T18:33:54.572Z,14.10
2022-12-22T18:36:29.297Z,14.10
2022-12-22T18:38:58.793Z,14.10
2022-12-22T18:41:30.409Z,14.10
2022-12-22T18:44:00.130Z,14.10
2022-12-22T18:46:28.566Z,14.10
2022-12-22T18:49:03.467Z,14.10
2022-12-22T18:51:33.976Z,14.10
2022-12-22T18:54:02.318Z,14.10
2022-12-22T18:56:30.622Z,14.10
2022-12-22T18:59:00.317Z,14.00
2022-12-22T19:01:29.174Z,14.00
2022-12-22T19:03:58.899Z,14.00
2022-12-22T19:06:27.537Z,14.00
2022-12-22T19:08:55.890Z,14.00
2022-12-22T19:11:28.640Z,14.00
2022-12-22T19:13:56.990Z,14.00
2022-12-22T19:16:27.898Z,14.00
2022-12-22T19:18:57.943Z,14.00
2022-12-22T19:21:26.331Z,14.00
2022-12-22T19:23:54.767Z,13.90
2022-12-22T19:26:25.422Z,14.00
2022-12-22T19:28:56.306Z,13.90
2022-12-22T19:31:28.509Z,14.00
2022-12-22T19:33:58.388Z,14.00
2022-12-22T19:36:29.894Z,13.90
2022-12-22T19:39:04.632Z,13.90
2022-12-22T19:41:39.911Z,13.90
2022-12-22T19:44:18.880Z,13.90
2022-12-22T19:46:48.991Z,13.90
2022-12-22T19:49:18.568Z,13.90
2022-12-22T19:51:47.235Z,13.90
2022-12-22T19:54:15.747Z,13.90
2022-12-22T19:56:47.229Z,13.90
2022-12-22T19:59:28.237Z,13.90
2022-12-22T20:02:01.517Z,13.90
2022-12-22T20:04:30.078Z,13.90
2022-12-22T20:06:58.525Z,13.80
2022-12-22T20:09:26.845Z,13.80
2022-12-22T20:11:55.255Z,13.80
2022-12-22T20:14:23.640Z,13.80
2022-12-22T20:16:51.954Z,13.80
2022-12-22T20:19:21.735Z,13.80
2022-12-22T20:21:50.040Z,13.80
2022-12-22T20:24:23.274Z,13.80
2022-12-22T20:26:54.502Z,13.80
2022-12-22T20:29:25.116Z,13.80
2022-12-22T20:31:53.928Z,13.80
2022-12-22T20:34:23.690Z,13.80
2022-12-22T20:36:52.080Z,13.80
2022-12-22T20:39:20.788Z,13.80
2022-12-22T20:41:53.261Z,13.70
2022-12-22T20:44:22.785Z,13.70
2022-12-22T20:46:51.312Z,13.80
2022-12-22T20:49:19.648Z,13.80
2022-12-22T20:51:49.350Z,13.70
2022-12-22T20:54:17.908Z,13.70
2022-12-22T20:56:46.416Z,13.70
2022-12-22T20:59:17.875Z,13.70
2022-12-22T21:01:46.948Z,13.70
2022-12-22T21:04:15.998Z,13.70
2022-12-22T21:06:47.957Z,13.70
2022-12-22T21:09:18.564Z,13.70
2022-12-22T21:11:47.379Z,13.70
2022-12-22T21:14:16.293Z,13.70
2022-12-22T21:16:45.121Z,13.70
2022-12-22T21:19:18.475Z,13.70
2022-12-22T21:21:47.153Z,13.70
2022-12-22T21:24:18.549Z,13.70
2022-12-22T21:26:50.087Z,13.70
2022-12-22T21:29:21.467Z,13.70
2022-12-22T21:31:49.851Z,13.70
2022-12-22T21:34:18.318Z,13.70
2022-12-22T21:36:49.861Z,13.70
2022-12-22T21:39:28.878Z,13.70
2022-12-22T21:42:04.562Z,13.70
2022-12-22T21:44:34.995Z,13.60
2022-12-22T21:47:03.849Z,13.60
2022-12-22T21:49:34.209Z,13.70
2022-12-22T21:52:02.579Z,13.70
2022-12-22T21:54:32.293Z,13.60
2022-12-22T21:57:00.685Z,13.70
2022-12-22T21:59:28.967Z,13.60
2022-12-22T22:01:57.523Z,13.70
2022-12-22T22:04:26.063Z,13.60
2022-12-22T22:06:54.390Z,13.70
2022-12-22T22:09:23.116Z,13.70
2022-12-22T22:12:10.093Z,13.70
2022-12-22T22:14:38.507Z,13.60
2022-12-22T22:17:06.842Z,13.60
2022-12-22T22:19:35.253Z,13.70
2022-12-22T22:22:04.290Z,13.70
2022-12-22T22:24:32.759Z,13.60
2022-12-22T22:27:02.490Z,13.60
2022-12-22T22:29:30.855Z,13.60
2022-12-22T22:31:59.133Z,13.60
2022-12-22T22:34:27.447Z,13.60
2022-12-22T22:36:55.790Z,13.60
2022-12-22T22:39:24.309Z,13.60
2022-12-22T22:41:52.787Z,13.60
2022-12-22T22:44:22.564Z,13.60
2022-12-22T22:46:50.960Z,13.60
2022-12-22T22:49:24.233Z,13.60
2022-12-22T22:51:56.509Z,13.60
2022-12-22T22:54:24.766Z,13.60
2022-12-22T22:56:54.685Z,13.60
2022-12-22T22:59:24.593Z,13.60
2022-12-22T23:02:07.878Z,13.60
2022-12-22T23:04:51.073Z,13.60
2022-12-22T23:07:19.423Z,13.60
2022-12-22T23:09:47.669Z,13.60
2022-12-22T23:12:16.049Z,13.60
2022-12-22T23:14:45.700Z,13.60
2022-12-22T23:17:14.055Z,13.60
2022-12-22T23:19:42.291Z,13.60
2022-12-22T23:22:10.821Z,13.60
2022-12-22T23:24:39.210Z,13.60
2022-12-22T23:27:07.612Z,13.60
2022-12-22T23:29:37.250Z,13.60
2022-12-22T23:32:07.414Z,13.60
2022-12-22T23:34:35.703Z,13.60
2022-12-22T23:37:04.678Z,13.60
2022-12-22T23:39:33.052Z,13.60
2022-12-22T23:42:01.331Z,13.60
2022-12-22T23:44:29.662Z,13.60
2022-12-22T23:46:57.946Z,13.60
2022-12-22T23:49:27.700Z,13.60
2022-12-22T23:51:55.979Z,13.60
2022-12-22T23:54:24.412Z,13.60
2022-12-22T23:56:52.731Z,13.60
2022-12-22T23:59:21.150Z,13.60
